Portada
METAR-TAF:

METAR-TAF

Aeropuertos :

Aeropuerto Internacional de Wellington

Wellington, Nueva Zelanda

latitud: 41-20S, longitud: 174-48E, altitud: 12 m

Observación

El informe se hizo hace 24 minutos, a las 03:30 UTC
Viento 11 kt del norte
Temperatura 19°C
Humedad 60%
Presión 1024 hPa
Visibilidad 10 km o más

METAR: NZWN 220330Z AUTO 01011KT 9999 NCD 19/11 Q1024 NOSIG

Hora: 16:54 (03:54 UTC)

Pronóstico

El informe se hizo hace 4 horas y 53 minutos, a las 23:01 UTC
Pronóstico válido del 22 a las 00 UTC al 23 a las 00 UTC
Viento 10 kt del norte
Visibilidad 10 km o más
Escasas nubes a una altura de 2000 ft
Temporalmente
del 22 a las 11 UTC al 22 a las 18 UTC
Cielo nuboso a una altura de 1400 ft
Evolucionando progresivamente
del 22 a las 18 UTC al 22 a las 20 UTC
Viento 15 kt del norte con ráfagas de 25 kt

TAF: NZWN 212301Z 2200/2300 01010KT 9999 FEW020 TEMPO 2211/2218 BKN014 BECMG 2218/2220 01015G25KT

Observaciones y pronósticos meteorológicos de más de 4000 aeropuertos (mensajes METAR y TAF).

Los puntos amarillos y rojos representan las estaciones disponibles.

Ponga el ratón en el punto deseado para ver el nombre de la estación.

Haga clic para ver las observaciones y los pronósticos meteorológicos.

Para cambiar el mapa : haga clic en los botones verdes con una cruz de color negro para hacer un zoom, en el botón verde con un guión para alejar o en las flechas verdes para mapas adyacentes.


METAR-TAF: